Time;durP1;ratioP1;P1;durP2;ratioP2;P2;SDS_P1;SDS_P2;PMS_P1;PMS_P2;Temp;Humidity;BMP_temperature;BMP_pressure;BME280_temperature;BME280_humidity;BME280_pressure;Samples;Min_cycle;Max_cycle;Signal;HPM_P1;HPM_P2
2023/08/05 00:00:29;;;;;;;4.75;3.15;;;;;;;;;;5015994;28;20034;-73
2023/08/05 00:02:55;;;;;;;3.95;3.08;;;;;;;;;;5011695;28;20185;-74
2023/08/05 00:05:21;;;;;;;4.20;3.38;;;;;;;;;;5018907;28;20088;-74
2023/08/05 00:07:47;;;;;;;4.95;3.20;;;;;;;;;;5011189;28;20492;-74
2023/08/05 00:10:13;;;;;;;4.80;3.42;;;;;;;;;;5010910;28;20477;-73
2023/08/05 00:12:39;;;;;;;3.53;3.13;;;;;;;;;;5015502;28;20041;-74
2023/08/05 00:15:06;;;;;;;4.75;3.40;;;;;;;;;;5019342;28;20038;-73
2023/08/05 00:17:32;;;;;;;6.40;3.80;;;;;;;;;;5021408;28;20103;-74
2023/08/05 00:19:58;;;;;;;5.25;3.85;;;;;;;;;;5011621;28;20125;-73
2023/08/05 00:22:24;;;;;;;5.60;4.10;;;;;;;;;;5005963;28;20076;-73
2023/08/05 00:24:50;;;;;;;6.82;4.28;;;;;;;;;;5005045;28;20469;-74
2023/08/05 00:27:16;;;;;;;4.70;3.85;;;;;;;;;;4997412;28;20133;-73
2023/08/05 00:29:42;;;;;;;6.68;3.80;;;;;;;;;;5016632;28;20140;-73
2023/08/05 00:32:08;;;;;;;6.18;4.10;;;;;;;;;;5017371;28;20077;-74
2023/08/05 00:34:34;;;;;;;4.90;4.15;;;;;;;;;;4998174;28;20037;-74
2023/08/05 00:37:00;;;;;;;4.97;3.70;;;;;;;;;;5020589;28;20053;-74
2023/08/05 00:39:26;;;;;;;6.18;4.20;;;;;;;;;;5014696;28;20382;-73
2023/08/05 00:41:52;;;;;;;5.80;4.22;;;;;;;;;;5009657;28;20088;-74
2023/08/05 00:44:18;;;;;;;5.13;3.72;;;;;;;;;;4995675;28;20053;-74
2023/08/05 00:46:44;;;;;;;6.65;4.28;;;;;;;;;;4994255;28;20045;-74
2023/08/05 00:49:11;;;;;;;5.70;3.67;;;;;;;;;;4995994;28;20505;-73
2023/08/05 00:51:37;;;;;;;5.28;3.65;;;;;;;;;;5015971;28;20041;-73
2023/08/05 00:54:04;;;;;;;9.55;4.10;;;;;;;;;;5019429;28;20200;-74
2023/08/05 00:56:30;;;;;;;8.93;4.05;;;;;;;;;;5013472;28;20099;-74
2023/08/05 00:58:56;;;;;;;6.45;3.90;;;;;;;;;;4994375;28;20552;-73
2023/08/05 01:01:22;;;;;;;7.10;3.88;;;;;;;;;;5023723;28;20046;-74
2023/08/05 01:03:49;;;;;;;7.95;4.53;;;;;;;;;;5011939;28;20053;-74
2023/08/05 01:06:15;;;;;;;9.77;5.30;;;;;;;;;;5001487;28;20038;-74
2023/08/05 01:08:42;;;;;;;9.02;4.82;;;;;;;;;;5021046;28;20511;-73
2023/08/05 01:11:11;;;;;;;7.95;5.38;;;;;;;;;;5006124;28;20480;-74
2023/08/05 01:13:39;;;;;;;12.30;5.20;;;;;;;;;;4995734;28;20064;-73
2023/08/05 01:16:05;;;;;;;8.65;5.10;;;;;;;;;;5005517;28;20049;-74
2023/08/05 01:18:33;;;;;;;6.65;4.80;;;;;;;;;;4996197;28;20052;-74
2023/08/05 01:21:01;;;;;;;9.75;5.28;;;;;;;;;;4998525;28;20441;-74
2023/08/05 01:23:30;;;;;;;12.57;5.70;;;;;;;;;;5024393;28;20049;-74
2023/08/05 01:25:57;;;;;;;9.20;5.55;;;;;;;;;;5014663;28;20393;-73
2023/08/05 01:28:23;;;;;;;7.78;5.68;;;;;;;;;;5020820;28;20046;-73
2023/08/05 01:30:50;;;;;;;9.90;5.57;;;;;;;;;;5013424;28;20046;-74
2023/08/05 01:33:17;;;;;;;8.07;5.82;;;;;;;;;;5017103;28;20492;-74
2023/08/05 01:35:49;;;;;;;10.43;6.00;;;;;;;;;;5010540;28;20077;-74
2023/08/05 01:38:15;;;;;;;8.38;5.82;;;;;;;;;;5025998;28;20387;-74
2023/08/05 01:40:41;;;;;;;7.47;5.80;;;;;;;;;;5015641;28;20064;-74
2023/08/05 01:43:08;;;;;;;9.85;5.80;;;;;;;;;;5015698;28;20045;-74
2023/08/05 01:45:34;;;;;;;9.35;6.38;;;;;;;;;;4998939;28;21592;-74
2023/08/05 01:48:00;;;;;;;8.15;5.95;;;;;;;;;;5000256;28;20041;-73
2023/08/05 01:50:26;;;;;;;10.48;6.15;;;;;;;;;;4999256;28;20488;-74
2023/08/05 01:52:53;;;;;;;11.85;5.97;;;;;;;;;;5019379;28;20038;-74
2023/08/05 01:55:19;;;;;;;10.60;6.45;;;;;;;;;;5021015;28;20101;-74
2023/08/05 01:57:45;;;;;;;10.75;6.60;;;;;;;;;;5018325;28;20037;-74
2023/08/05 02:00:12;;;;;;;8.38;5.60;;;;;;;;;;4993754;28;20070;-73
2023/08/05 02:02:38;;;;;;;8.55;5.50;;;;;;;;;;5012366;28;20057;-73
2023/08/05 02:05:04;;;;;;;8.50;5.68;;;;;;;;;;5036276;28;20583;-74
2023/08/05 02:07:30;;;;;;;8.80;5.25;;;;;;;;;;5013809;28;20059;-74
2023/08/05 02:09:56;;;;;;;9.95;5.93;;;;;;;;;;5020330;28;20048;-73
2023/08/05 02:12:22;;;;;;;9.35;5.45;;;;;;;;;;5005577;28;20053;-74
2023/08/05 02:14:48;;;;;;;9.05;5.40;;;;;;;;;;5007870;28;20049;-74
2023/08/05 02:17:14;;;;;;;10.15;5.57;;;;;;;;;;5024080;28;20050;-73
2023/08/05 02:19:40;;;;;;;7.70;5.50;;;;;;;;;;5013299;28;20052;-73
2023/08/05 02:22:06;;;;;;;9.32;5.15;;;;;;;;;;5017144;28;20050;-74
2023/08/05 02:24:32;;;;;;;8.93;5.10;;;;;;;;;;5006060;28;20048;-74
2023/08/05 02:26:58;;;;;;;7.55;5.40;;;;;;;;;;5017109;28;20473;-73
2023/08/05 02:29:24;;;;;;;6.38;5.03;;;;;;;;;;5006151;28;20132;-73
2023/08/05 02:31:50;;;;;;;7.65;5.20;;;;;;;;;;4999053;28;20041;-74
2023/08/05 02:34:16;;;;;;;11.95;4.80;;;;;;;;;;5013942;28;20080;-74
2023/08/05 02:36:42;;;;;;;9.38;5.07;;;;;;;;;;5018742;28;20037;-74
2023/08/05 02:39:08;;;;;;;8.85;5.20;;;;;;;;;;5026759;28;20550;-73
2023/08/05 02:41:34;;;;;;;7.13;4.93;;;;;;;;;;5015354;28;20091;-74
2023/08/05 02:44:00;;;;;;;7.97;4.97;;;;;;;;;;5017339;28;20045;-73
2023/08/05 02:46:26;;;;;;;8.95;4.93;;;;;;;;;;4998269;28;20659;-74
2023/08/05 02:48:52;;;;;;;7.45;4.78;;;;;;;;;;5014681;28;20084;-74
2023/08/05 02:51:18;;;;;;;6.95;4.90;;;;;;;;;;4993217;28;20061;-74
2023/08/05 02:53:45;;;;;;;8.07;5.05;;;;;;;;;;5012278;28;20094;-74
2023/08/05 02:56:11;;;;;;;12.50;4.90;;;;;;;;;;4996537;28;20034;-74
2023/08/05 02:58:37;;;;;;;8.15;5.13;;;;;;;;;;5010549;28;20089;-74
2023/08/05 03:01:07;;;;;;;10.93;5.97;;;;;;;;;;5014556;28;20038;-74
2023/08/05 03:03:33;;;;;;;10.77;5.80;;;;;;;;;;5015975;28;20069;-74
2023/08/05 03:05:59;;;;;;;8.73;5.95;;;;;;;;;;4996194;28;20042;-73
2023/08/05 03:08:25;;;;;;;9.48;5.88;;;;;;;;;;5027770;28;20050;-73
2023/08/05 03:10:58;;;;;;;11.75;6.35;;;;;;;;;;5013923;28;20133;-74
2023/08/05 03:13:24;;;;;;;10.35;5.80;;;;;;;;;;4994284;28;20111;-74
2023/08/05 03:15:50;;;;;;;7.88;5.40;;;;;;;;;;5022280;28;20056;-74
2023/08/05 03:18:16;;;;;;;10.50;5.85;;;;;;;;;;5026004;28;20117;-74
2023/08/05 03:20:43;;;;;;;10.02;5.50;;;;;;;;;;5022868;28;20033;-74
2023/08/05 03:23:10;;;;;;;9.27;5.47;;;;;;;;;;5021282;28;20434;-74
2023/08/05 03:25:37;;;;;;;12.00;5.80;;;;;;;;;;5014730;28;20056;-74
2023/08/05 03:28:03;;;;;;;12.68;5.32;;;;;;;;;;5009378;28;20124;-74
2023/08/05 03:30:29;;;;;;;11.40;5.80;;;;;;;;;;4999673;28;20446;-74
2023/08/05 03:32:55;;;;;;;9.40;5.53;;;;;;;;;;5013853;28;20098;-74
2023/08/05 03:35:21;;;;;;;10.80;5.50;;;;;;;;;;5018813;28;20451;-74
2023/08/05 03:37:47;;;;;;;12.15;5.25;;;;;;;;;;5011413;28;20041;-74
2023/08/05 03:40:13;;;;;;;9.27;5.40;;;;;;;;;;5019800;28;20054;-74
2023/08/05 03:42:40;;;;;;;9.13;5.30;;;;;;;;;;5019287;28;20057;-73
2023/08/05 03:45:06;;;;;;;7.97;5.28;;;;;;;;;;5003188;28;20045;-74
2023/08/05 03:47:33;;;;;;;7.57;5.15;;;;;;;;;;5014156;28;20045;-74
2023/08/05 03:49:59;;;;;;;9.30;5.70;;;;;;;;;;4993159;28;20049;-74
2023/08/05 03:52:26;;;;;;;9.02;5.50;;;;;;;;;;5018908;28;20084;-74
2023/08/05 03:54:52;;;;;;;10.07;5.30;;;;;;;;;;5009072;28;20046;-73
2023/08/05 03:57:18;;;;;;;12.82;5.50;;;;;;;;;;5018706;28;20500;-74
2023/08/05 03:59:47;;;;;;;8.55;5.63;;;;;;;;;;5014538;28;20596;-74
2023/08/05 04:02:14;;;;;;;7.57;5.75;;;;;;;;;;5006806;28;20046;-74
2023/08/05 04:04:42;;;;;;;12.05;5.93;;;;;;;;;;5027547;28;20050;-73
2023/08/05 04:07:08;;;;;;;13.23;5.70;;;;;;;;;;5022446;28;20049;-73
2023/08/05 04:09:36;;;;;;;10.75;5.97;;;;;;;;;;5024243;28;20322;-73
2023/08/05 04:12:05;;;;;;;12.43;4.93;;;;;;;;;;5012757;28;20038;-73
2023/08/05 04:14:31;;;;;;;9.70;5.65;;;;;;;;;;4997135;28;20045;-73
2023/08/05 04:16:58;;;;;;;8.77;5.35;;;;;;;;;;5009367;28;20102;-73
2023/08/05 04:19:25;;;;;;;9.32;6.30;;;;;;;;;;5015384;28;20046;-73
2023/08/05 04:21:52;;;;;;;8.85;5.50;;;;;;;;;;5019739;28;20381;-73
2023/08/05 04:24:22;;;;;;;16.63;6.25;;;16.60;99.90;;;;;;5002043;28;20057;-73
2023/08/05 04:26:50;;;;;;;9.10;5.68;;;16.50;99.90;;;;;;5010908;28;20042;-73
2023/08/05 04:29:18;;;;;;;12.43;5.90;;;16.50;99.90;;;;;;5016094;28;20397;-74
2023/08/05 04:31:45;;;;;;;10.57;6.00;;;16.50;99.90;;;;;;5023652;28;20045;-74
2023/08/05 04:34:11;;;;;;;8.77;5.90;;;16.40;99.90;;;;;;5008174;28;20042;-73
2023/08/05 04:36:37;;;;;;;8.35;5.97;;;16.50;99.90;;;;;;4998574;28;20459;-74
2023/08/05 04:39:03;;;;;;;11.25;5.43;;;16.50;99.90;;;;;;5014597;28;20041;-74
2023/08/05 04:41:29;;;;;;;8.98;5.63;;;;;;;;;;5012679;28;20170;-74
2023/08/05 04:43:56;;;;;;;10.90;5.72;;;;;;;;;;4990168;28;20493;-73
2023/08/05 04:46:22;;;;;;;11.15;5.65;;;16.50;99.90;;;;;;5009571;28;20042;-73
2023/08/05 04:48:48;;;;;;;9.57;5.93;;;16.50;99.90;;;;;;5006879;28;20053;-74
2023/08/05 04:51:13;;;;;;;9.55;6.03;;;16.50;99.90;;;;;;5018535;28;20069;-74
2023/08/05 04:53:39;;;;;;;7.07;5.22;;;16.70;99.90;;;;;;5018723;28;20148;-73
2023/08/05 04:56:05;;;;;;;12.30;5.25;;;16.80;99.90;;;;;;5017388;28;20056;-74
2023/08/05 04:58:31;;;;;;;10.30;5.32;;;16.70;99.90;;;;;;5024916;28;20054;-74
2023/08/05 05:00:57;;;;;;;9.95;5.13;;;16.60;99.90;;;;;;5018161;28;20045;-74
2023/08/05 05:03:23;;;;;;;6.85;4.97;;;16.30;99.90;;;;;;5009455;28;20053;-74
2023/08/05 05:05:49;;;;;;;8.95;5.03;;;16.20;99.90;;;;;;4999334;28;20045;-74
2023/08/05 05:08:15;;;;;;;9.85;5.00;;;16.60;99.90;;;;;;4997929;28;20052;-74
2023/08/05 05:10:45;;;;;;;11.90;5.07;;;16.70;99.90;;;;;;5009319;28;20041;-74
2023/08/05 05:13:11;;;;;;;8.48;5.30;;;16.60;99.90;;;;;;5024434;28;20057;-73
2023/08/05 05:15:36;;;;;;;8.45;4.75;;;16.50;99.90;;;;;;5012917;28;20057;-73
2023/08/05 05:18:02;;;;;;;6.70;5.03;;;16.50;99.90;;;;;;5013659;28;20125;-74
2023/08/05 05:20:28;;;;;;;8.55;4.78;;;16.40;99.90;;;;;;5027231;28;20077;-73
2023/08/05 05:22:53;;;;;;;7.50;4.95;;;16.60;99.90;;;;;;5023058;28;20041;-74
2023/08/05 05:25:19;;;;;;;8.68;5.30;;;;;;;;;;4997085;28;20073;-74
2023/08/05 05:27:45;;;;;;;5.82;4.65;;;16.50;99.90;;;;;;5018862;28;20505;-74
2023/08/05 05:30:11;;;;;;;8.05;4.63;;;;;;;;;;5031499;28;20046;-73
2023/08/05 05:32:37;;;;;;;9.38;5.32;;;17.20;99.90;;;;;;4996610;28;20091;-74
2023/08/05 05:35:03;;;;;;;10.20;4.95;;;;;;;;;;5027001;28;20396;-74
2023/08/05 05:37:29;;;;;;;9.60;5.68;;;16.80;99.90;;;;;;5042670;28;20053;-74
2023/08/05 05:39:55;;;;;;;7.50;4.97;;;;;;;;;;5009198;28;20038;-74
2023/08/05 05:42:20;;;;;;;8.43;5.40;;;16.90;99.90;;;;;;4993923;28;20053;-74
2023/08/05 05:44:52;;;;;;;8.77;5.50;;;;;;;;;;5012646;28;20046;-74
2023/08/05 05:47:19;;;;;;;9.27;5.32;;;17.10;99.90;;;;;;5000379;28;20053;-74
2023/08/05 05:49:46;;;;;;;9.50;5.80;;;;;;;;;;5057486;28;20042;-74
2023/08/05 05:52:15;;;;;;;14.05;6.05;;;;;;;;;;5014640;28;20058;-74
2023/08/05 05:54:41;;;;;;;7.50;5.50;;;;;;;;;;5021699;28;20049;-73
2023/08/05 05:57:07;;;;;;;10.38;6.13;;;;;;;;;;5006638;28;20045;-74
2023/08/05 05:59:33;;;;;;;8.55;5.28;;;;;;;;;;5016102;28;20083;-74
2023/08/05 06:01:59;;;;;;;8.77;5.75;;;17.60;99.90;;;;;;5017395;28;20106;-74
2023/08/05 06:04:28;;;;;;;8.68;5.38;;;16.90;99.90;;;;;;5015821;28;20053;-73
2023/08/05 06:06:54;;;;;;;8.82;5.80;;;;;;;;;;5024582;28;20548;-74
2023/08/05 06:09:20;;;;;;;9.65;5.35;;;17.30;99.90;;;;;;5024514;28;20493;-74
2023/08/05 06:11:46;;;;;;;6.93;4.85;;;17.00;99.90;;;;;;5022762;28;20079;-74
2023/08/05 06:14:12;;;;;;;7.13;4.70;;;17.10;99.90;;;;;;5021100;28;20029;-73
2023/08/05 06:16:37;;;;;;;8.52;5.05;;;17.20;99.90;;;;;;5023167;28;20046;-74
2023/08/05 06:19:03;;;;;;;7.38;4.93;;;17.20;99.90;;;;;;5002607;28;20050;-73
2023/08/05 06:21:29;;;;;;;7.00;5.22;;;;;;;;;;5020135;28;20384;-74
2023/08/05 06:23:55;;;;;;;6.30;5.15;;;;;;;;;;4998323;28;20503;-73
2023/08/05 06:26:21;;;;;;;12.10;4.95;;;;;;;;;;5010763;28;20046;-74
2023/08/05 06:28:47;;;;;;;8.57;4.75;;;;;;;;;;5013969;28;20042;-74
2023/08/05 06:31:13;;;;;;;6.63;4.55;;;;;;;;;;5014102;28;20034;-74
2023/08/05 06:33:39;;;;;;;5.53;4.43;;;;;;;;;;4998516;28;20053;-73
2023/08/05 06:36:05;;;;;;;7.25;4.57;;;;;;;;;;5019650;28;20037;-73
2023/08/05 06:38:31;;;;;;;7.40;4.22;;;;;;;;;;5007033;28;20117;-73
2023/08/05 06:40:58;;;;;;;7.32;4.72;;;;;;;;;;4993086;28;20053;-74
2023/08/05 06:43:24;;;;;;;9.55;4.82;;;;;;;;;;5005819;28;20069;-74
2023/08/05 06:45:50;;;;;;;6.43;3.75;;;;;;;;;;4995767;28;20120;-73
2023/08/05 06:48:16;;;;;;;7.55;4.88;;;;;;;;;;5009368;28;20061;-73
2023/08/05 06:50:42;;;;;;;10.20;4.60;;;;;;;;;;5018745;28;20048;-73
2023/08/05 06:53:08;;;;;;;9.88;4.82;;;;;;;;;;5074802;28;20054;-73
2023/08/05 06:55:34;;;;;;;7.05;4.53;;;;;;;;;;5017679;28;20034;-73
2023/08/05 06:58:00;;;;;;;8.63;4.50;;;;;;;;;;4994858;28;20140;-73
2023/08/05 07:00:27;;;;;;;6.72;4.70;;;;;;;;;;5024042;28;20149;-74
2023/08/05 07:02:53;;;;;;;6.63;4.55;;;;;;;;;;5028872;28;20061;-73
2023/08/05 07:05:19;;;;;;;6.15;4.45;;;;;;;;;;4995947;28;20096;-73
2023/08/05 07:07:45;;;;;;;7.50;5.18;;;;;;;;;;5009146;28;20046;-74
2023/08/05 07:10:12;;;;;;;7.00;4.50;;;;;;;;;;5022778;28;20042;-73
2023/08/05 07:12:39;;;;;;;7.07;4.40;;;;;;;;;;5010582;28;20084;-73
2023/08/05 07:15:05;;;;;;;10.73;4.70;;;;;;;;;;5010909;28;20090;-73
2023/08/05 07:17:31;;;;;;;7.55;4.82;;;;;;;;;;5013095;28;20041;-73
2023/08/05 07:19:57;;;;;;;8.55;4.45;;;;;;;;;;5003041;28;20141;-74
2023/08/05 07:22:23;;;;;;;9.65;5.13;;;;;;;;;;5031692;28;20140;-74
2023/08/05 07:24:49;;;;;;;8.90;5.13;;;;;;;;;;5036784;28;20059;-74
2023/08/05 07:27:15;;;;;;;7.18;4.53;;;;;;;;;;5008497;28;20045;-74
2023/08/05 07:29:44;;;;;;;8.63;5.07;;;;;;;;;;5022929;28;20042;-73
2023/08/05 07:32:11;;;;;;;9.32;4.97;;;;;;;;;;5019648;28;20068;-73
2023/08/05 07:34:37;;;;;;;8.88;4.97;;;;;;;;;;5012491;28;20034;-74
2023/08/05 07:37:03;;;;;;;8.50;4.63;;;;;;;;;;5008956;28;20046;-74
2023/08/05 07:39:33;;;;;;;6.63;4.80;;;;;;;;;;5049806;28;20046;-73
2023/08/05 07:42:03;;;;;;;11.48;5.63;;;;;;;;;;4991310;28;20061;-73
2023/08/05 07:44:31;;;;;;;9.02;5.13;;;;;;;;;;5017289;28;20067;-73
2023/08/05 07:46:57;;;;;;;9.77;5.00;;;;;;;;;;4992827;28;20064;-73
2023/08/05 07:49:23;;;;;;;10.10;5.20;;;;;;;;;;5014883;28;20073;-73
2023/08/05 07:51:51;;;;;;;11.95;5.38;;;;;;;;;;5017047;28;20045;-73
2023/08/05 07:54:18;;;;;;;9.65;4.90;;;;;;;;;;5021489;28;20053;-74
2023/08/05 07:56:45;;;;;;;7.50;4.60;;;;;;;;;;5008304;28;20042;-73
2023/08/05 07:59:12;;;;;;;7.57;5.35;;;;;;;;;;5003724;28;20481;-73
2023/08/05 08:01:42;;;;;;;9.10;4.95;;;;;;;;;;5016165;28;20033;-73
2023/08/05 08:04:13;;;;;;;7.00;4.50;;;;;;;;;;5023836;28;20088;-73
2023/08/05 08:06:39;;;;;;;11.05;4.70;;;;;;;;;;5001135;28;20147;-73
2023/08/05 08:09:05;;;;;;;9.00;4.57;;;;;;;;;;5021158;28;20041;-73
2023/08/05 08:11:32;;;;;;;7.82;4.57;;;;;;;;;;5012071;28;20171;-73
2023/08/05 08:13:58;;;;;;;5.05;4.55;;;;;;;;;;5023237;28;20045;-73
2023/08/05 08:16:24;;;;;;;5.75;4.40;;;;;;;;;;4997029;28;20056;-73
2023/08/05 08:18:50;;;;;;;7.88;4.78;;;;;;;;;;4993576;28;20053;-73
2023/08/05 08:21:16;;;;;;;6.15;4.65;;;;;;;;;;5010097;28;20057;-73
2023/08/05 08:23:42;;;;;;;9.00;4.60;;;;;;;;;;5022602;28;20489;-73
2023/08/05 08:26:08;;;;;;;8.35;4.70;;;;;;;;;;5024607;28;20120;-73
2023/08/05 08:28:34;;;;;;;7.72;4.60;;;;;;;;;;5009363;28;20608;-75
2023/08/05 08:31:00;;;;;;;5.72;5.00;;;;;;;;;;5021033;28;20120;-71
2023/08/05 08:33:26;;;;;;;11.73;4.88;;;;;;;;;;5005108;28;20396;-71
2023/08/05 08:35:52;;;;;;;8.98;5.00;;;;;;;;;;5016562;28;20571;-71
2023/08/05 08:38:19;;;;;;;8.63;4.93;;;;;;;;;;4996101;28;20054;-71
2023/08/05 08:40:46;;;;;;;8.43;5.25;;;;;;;;;;5016657;28;20056;-71
2023/08/05 08:43:13;;;;;;;8.15;5.20;;;;;;;;;;5003292;28;20069;-72
2023/08/05 08:45:39;;;;;;;9.57;5.57;;;;;;;;;;5009695;28;20042;-71
2023/08/05 08:48:07;;;;;;;10.80;5.00;;;;;;;;;;5002051;28;20585;-71
2023/08/05 08:50:33;;;;;;;7.65;4.43;;;;;;;;;;5014809;28;20052;-72
2023/08/05 08:52:59;;;;;;;10.80;5.15;;;;;;;;;;5018807;28;20087;-71
2023/08/05 08:55:26;;;;;;;7.13;5.00;;;;;;;;;;5004730;28;20569;-71
2023/08/05 08:57:52;;;;;;;9.50;4.78;;;;;;;;;;5017925;28;20496;-71
2023/08/05 09:00:18;;;;;;;7.43;4.80;;;;;;;;;;5015968;28;20050;-72
2023/08/05 09:02:44;;;;;;;8.13;4.60;;;;;;;;;;5021530;28;20052;-72
2023/08/05 09:05:10;;;;;;;7.45;4.97;;;;;;;;;;5001561;28;20057;-71
2023/08/05 09:07:37;;;;;;;6.93;4.82;;;;;;;;;;5016929;28;20049;-72
2023/08/05 09:10:07;;;;;;;6.28;4.82;;;;;;;;;;4994634;28;20112;-72
2023/08/05 09:12:34;;;;;;;6.25;4.80;;;;;;;;;;5003636;28;21203;-72
2023/08/05 09:15:00;;;;;;;10.05;5.20;;;;;;;;;;5001749;28;20429;-71
2023/08/05 09:17:26;;;;;;;9.00;5.05;;;;;;;;;;5019176;28;20997;-71
2023/08/05 09:19:53;;;;;;;7.07;5.22;;;;;;;;;;5004344;28;20053;-71
2023/08/05 09:22:19;;;;;;;11.35;5.57;;;;;;;;;;5011671;28;20557;-71
2023/08/05 09:24:45;;;;;;;6.50;4.93;;;;;;;;;;5010809;28;20041;-71
2023/08/05 09:27:11;;;;;;;7.65;5.00;;;;;;;;;;5006341;28;20128;-72
2023/08/05 09:29:37;;;;;;;6.88;4.90;;;;;;;;;;5009487;28;20126;-72
2023/08/05 09:32:04;;;;;;;6.22;5.28;;;;;;;;;;4999858;28;20048;-72
2023/08/05 09:34:38;;;;;;;7.15;5.38;;;;;;;;;;4996987;28;20055;-71
2023/08/05 09:37:05;;;;;;;10.40;5.50;;;;;;;;;;5014225;28;20065;-72
2023/08/05 09:39:44;;;;;;;8.43;5.45;;;;;;;;;;5019958;28;20041;-72
2023/08/05 09:42:27;;;;;;;10.60;5.20;;;;;;;;;;5013754;28;20124;-72
2023/08/05 09:44:54;;;;;;;7.38;5.60;;;;;;;;;;4996327;28;20133;-72
2023/08/05 09:47:23;;;;;;;7.35;5.50;;;;;;;;;;5018576;28;20086;-72
2023/08/05 09:49:50;;;;;;;8.98;5.80;;;;;;;;;;5018107;28;20042;-72
2023/08/05 09:52:23;;;;;;;7.20;5.00;;;;;;;;;;4997683;28;20069;-72
2023/08/05 09:55:07;;;;;;;7.07;5.72;;;;;;;;;;5002919;28;20045;-72
2023/08/05 09:57:33;;;;;;;6.70;6.03;;;;;;;;;;4998627;28;20100;-72
2023/08/05 10:00:02;;;;;;;7.78;6.10;;;;;;;;;;5004535;28;20034;-72
2023/08/05 10:02:31;;;;;;;7.65;5.30;;;;;;;;;;5040173;28;20062;-73
2023/08/05 10:04:57;;;;;;;10.60;5.35;;;;;;;;;;5012559;28;20050;-73
2023/08/05 10:07:25;;;;;;;7.90;4.90;;;;;;;;;;4994826;28;20057;-72
2023/08/05 10:09:52;;;;;;;8.55;4.88;;;;;;;;;;5021582;28;20058;-72
2023/08/05 10:12:21;;;;;;;5.97;5.38;;;;;;;;;;5011300;28;20081;-73
2023/08/05 10:14:47;;;;;;;5.68;4.72;;;;;;;;;;5007609;28;20046;-73
2023/08/05 10:17:13;;;;;;;7.65;5.10;;;;;;;;;;5076466;28;20135;-73
2023/08/05 10:19:40;;;;;;;5.60;4.95;;;;;;;;;;5024240;28;20404;-73
2023/08/05 10:22:10;;;;;;;5.30;4.68;;;;;;;;;;5023669;28;20050;-72
2023/08/05 10:24:56;;;;;;;5.28;4.43;;;;;;;;;;5019779;28;20135;-72
2023/08/05 10:27:34;;;;;;;6.90;4.97;;;;;;;;;;5010252;28;20099;-73
2023/08/05 10:30:07;;;;;;;8.38;5.18;;;;;;;;;;5068397;28;20043;-73
2023/08/05 10:32:33;;;;;;;7.45;4.70;;;;;;;;;;5018750;28;20041;-72
2023/08/05 10:35:25;;;;;;;5.70;4.53;;;;;;;;;;5000970;28;20076;-72
2023/08/05 10:37:51;;;;;;;5.53;4.50;;;;;;;;;;5003329;28;20388;-72
2023/08/05 10:40:36;;;;;;;6.30;4.57;;;;;;;;;;5010937;28;20060;-72
2023/08/05 10:43:02;;;;;;;5.65;4.90;;;;;;;;;;5021216;28;20038;-72
2023/08/05 10:45:28;;;;;;;5.07;4.50;;;;;;;;;;4992802;28;20081;-72
2023/08/05 10:47:54;;;;;;;8.18;4.95;;;;;;;;;;5013124;28;20079;-71
2023/08/05 10:50:20;;;;;;;6.45;4.80;;;;;;;;;;5008473;28;21050;-72
2023/08/05 10:52:46;;;;;;;6.72;4.70;;;;;;;;;;5021390;28;21692;-72
2023/08/05 10:55:12;;;;;;;5.30;4.80;;;;;;;;;;4996753;28;20049;-71
2023/08/05 10:57:38;;;;;;;5.32;4.60;;;;;;;;;;4990504;28;20054;-72
2023/08/05 11:00:07;;;;;;;7.35;5.00;;;;;;;;;;5019232;28;20506;-72
2023/08/05 11:02:33;;;;;;;5.57;5.03;;;;;;;;;;5016110;28;20073;-72
2023/08/05 11:05:06;;;;;;;5.28;4.88;;;;;;;;;;5012666;28;20477;-72
2023/08/05 11:07:34;;;;;;;7.15;4.90;;;;;;;;;;5006665;28;20038;-72
2023/08/05 11:10:01;;;;;;;5.82;5.32;;;;;;;;;;5017781;28;20046;-72
2023/08/05 11:12:29;;;;;;;7.03;5.47;;;;;;;;;;5014344;28;20110;-72
2023/08/05 11:14:55;;;;;;;7.65;5.43;;;;;;;;;;5018955;28;20053;-72
2023/08/05 11:17:21;;;;;;;5.78;5.10;;;;;;;;;;5013216;28;20050;-72
2023/08/05 11:19:51;;;;;;;5.60;4.97;;;;;;;;;;5018492;28;20034;-72
2023/08/05 11:22:30;;;;;;;6.45;5.20;;;;;;;;;;5021723;28;20045;-72
2023/08/05 11:24:57;;;;;;;7.13;5.28;;;;;;;;;;5008869;28;20037;-71
2023/08/05 11:27:32;;;;;;;6.72;5.22;;;;;;;;;;5029568;28;20045;-71
2023/08/05 11:29:58;;;;;;;7.47;4.78;;;;;;;;;;4998405;28;20133;-80
2023/08/05 11:32:24;;;;;;;5.85;5.35;;;;;;;;;;5000906;28;20146;-71
2023/08/05 11:35:00;;;;;;;8.18;5.22;;;;;;;;;;5019039;28;20086;-71
2023/08/05 11:37:26;;;;;;;5.80;5.15;;;;;;;;;;4994553;28;20056;-71
2023/08/05 11:40:00;;;;;;;5.88;4.70;;;;;;;;;;5014689;28;20113;-71
2023/08/05 11:42:26;;;;;;;6.25;5.20;;;;;;;;;;5012910;28;20054;-71
2023/08/05 11:44:52;;;;;;;6.30;5.20;;;;;;;;;;5021382;28;20045;-70
2023/08/05 11:47:18;;;;;;;5.88;5.28;;;;;;;;;;4999101;28;20049;-71
2023/08/05 11:49:52;;;;;;;6.63;5.30;;;;;;;;;;5029605;28;20149;-71
2023/08/05 11:52:18;;;;;;;6.05;5.22;;;;;;;;;;5007138;28;20061;-71
2023/08/05 11:54:47;;;;;;;5.00;4.60;;;;;;;;;;5026835;28;20057;-71
2023/08/05 11:57:20;;;;;;;5.20;4.70;;;;;;;;;;5015662;28;20668;-71
2023/08/05 11:59:47;;;;;;;6.55;4.45;;;;;;;;;;4991610;28;20053;-71
2023/08/05 12:02:14;;;;;;;5.93;4.82;;;;;;;;;;5015067;28;20500;-71
2023/08/05 12:04:50;;;;;;;6.05;4.50;;;;;;;;;;5013716;28;20045;-72
2023/08/05 12:07:17;;;;;;;5.95;4.72;;;;;;;;;;5020894;28;20421;-71
2023/08/05 12:09:43;;;;;;;7.57;5.50;;;;;;;;;;5003972;28;20469;-72
2023/08/05 12:12:16;;;;;;;7.03;5.88;;;;;;;;;;5017321;28;20042;-71
2023/08/05 12:14:42;;;;;;;8.43;6.35;;;;;;;;;;5013485;28;20045;-71
2023/08/05 12:17:08;;;;;;;6.50;5.82;;;;;;;;;;5016830;28;20038;-72
2023/08/05 12:19:34;;;;;;;9.82;6.88;;;;;;;;;;5014430;28;20478;-71
2023/08/05 12:22:00;;;;;;;7.20;6.03;;;;;;;;;;4997167;28;20042;-72
2023/08/05 12:24:27;;;;;;;6.68;6.00;;;;;;;;;;5022993;28;20094;-71
2023/08/05 12:26:53;;;;;;;7.97;6.68;;;;;;;;;;5016415;28;20102;-72
2023/08/05 12:29:19;;;;;;;8.68;7.55;;;;;;;;;;4995415;28;20508;-72
2023/08/05 12:31:45;;;;;;;8.23;7.43;;;;;;;;;;4999757;28;20038;-72
2023/08/05 12:34:11;;;;;;;8.73;6.93;;;;;;;;;;5017453;28;20049;-71
2023/08/05 12:36:37;;;;;;;8.07;7.22;;;;;;;;;;5015085;28;20120;-72
2023/08/05 12:39:03;;;;;;;8.57;7.68;;;;;;;;;;4997481;28;20050;-72
2023/08/05 12:41:29;;;;;;;10.48;8.45;;;;;;;;;;5017705;28;20098;-72
2023/08/05 12:43:55;;;;;;;13.82;4.40;;;;;;;;;;5027430;28;20049;-72
2023/08/05 12:46:21;;;;;;;12.85;5.38;;;;;;;;;;5026931;28;20053;-73
2023/08/05 12:48:47;;;;;;;19.00;6.25;;;;;;;;;;5000584;28;20106;-72
2023/08/05 12:51:13;;;;;;;22.23;5.40;;;;;;;;;;5024137;28;20041;-72
2023/08/05 12:53:41;;;;;;;10.88;3.80;;;;;;;;;;5014400;28;20052;-71
2023/08/05 12:56:07;;;;;;;7.68;3.53;;;;;;;;;;5031156;28;20049;-72
2023/08/05 12:58:34;;;;;;;6.32;3.40;;;;;;;;;;5020275;28;20550;-72
2023/08/05 13:01:00;;;;;;;6.63;3.67;;;;;;;;;;5025570;28;20065;-71
2023/08/05 13:03:26;;;;;;;4.88;3.30;;;;;;;;;;5015935;28;20493;-71
2023/08/05 13:05:52;;;;;;;4.18;3.38;;;;;;;;;;5015951;28;20041;-71
2023/08/05 13:08:17;;;;;;;4.43;3.22;;;17.30;99.90;;;;;;5012453;28;20045;-71
2023/08/05 13:10:45;;;;;;;5.13;3.20;;;;;;;;;;5028282;28;20106;-71
2023/08/05 13:13:10;;;;;;;3.88;3.15;;;17.00;99.90;;;;;;5000412;28;20085;-71
2023/08/05 13:15:36;;;;;;;3.72;3.20;;;17.50;99.90;;;;;;5017250;28;20549;-72
2023/08/05 13:18:02;;;;;;;3.42;3.05;;;17.30;99.90;;;;;;5018559;28;20096;-71
2023/08/05 13:20:30;;;;;;;4.53;3.17;;;;;;;;;;5016238;28;21903;-71
2023/08/05 13:22:56;;;;;;;3.92;3.20;;;;;;;;;;5017804;28;20046;-71
2023/08/05 13:25:22;;;;;;;3.38;2.92;;;;;;;;;;5023397;28;20137;-71
2023/08/05 13:27:49;;;;;;;3.88;2.88;;;;;;;;;;5026604;28;20077;-71
2023/08/05 13:30:15;;;;;;;3.92;3.17;;;;;;;;;;5028182;28;20082;-71
2023/08/05 13:32:41;;;;;;;5.05;3.78;;;;;;;;;;5025777;28;20045;-71
2023/08/05 13:35:07;;;;;;;4.97;3.97;;;;;;;;;;4997714;28;20095;-71
2023/08/05 13:37:34;;;;;;;4.57;3.97;;;;;;;;;;5011666;28;20136;-71
2023/08/05 13:40:00;;;;;;;5.57;4.57;;;;;;;;;;5024493;28;20046;-71
2023/08/05 13:42:26;;;;;;;6.30;4.75;;;;;;;;;;5004384;28;20061;-71
2023/08/05 13:44:52;;;;;;;5.50;4.30;;;;;;;;;;5017103;28;20038;-71
2023/08/05 13:47:18;;;;;;;4.65;4.25;;;;;;;;;;5012083;28;20072;-71
2023/08/05 13:49:44;;;;;;;5.07;4.57;;;;;;;;;;4993203;28;20505;-71
2023/08/05 13:52:10;;;;;;;5.03;4.53;;;;;;;;;;5002510;28;20038;-71
2023/08/05 13:54:36;;;;;;;4.95;4.45;;;;;;;;;;5024504;28;20045;-70
2023/08/05 13:57:03;;;;;;;5.93;4.85;;;;;;;;;;4994021;28;20046;-71
2023/08/05 13:59:29;;;;;;;6.68;4.70;;;;;;;;;;5016138;28;20045;-71
2023/08/05 14:01:55;;;;;;;6.90;4.80;;;;;;;;;;5013465;28;20128;-71
2023/08/05 14:04:20;;;;;;;8.13;4.63;;;17.30;99.90;;;;;;5001963;28;20054;-70
2023/08/05 14:06:46;;;;;;;8.70;6.30;;;;;;;;;;5019514;28;20052;-72
2023/08/05 14:09:12;;;;;;;5.57;4.80;;;17.40;99.90;;;;;;5001044;28;20046;-70
2023/08/05 14:11:38;;;;;;;7.43;5.38;;;17.20;99.90;;;;;;5000939;28;20061;-71
2023/08/05 14:14:03;;;;;;;8.25;6.28;;;17.40;99.90;;;;;;5016197;28;20441;-71
2023/08/05 14:16:29;;;;;;;7.28;5.50;;;;;;;;;;5026552;28;20033;-71
2023/08/05 14:18:55;;;;;;;6.72;5.10;;;17.40;99.90;;;;;;5016449;28;20580;-71
2023/08/05 14:21:22;;;;;;;12.13;5.82;;;17.20;99.90;;;;;;5023664;28;20085;-71